Search for airport 
image banner adimage banner adimage banner ad
image banner ad

6CL5 - Majlar

Located in Ojai, United States

ICAO - 6CL5, IATA -

Data provided by Airmate  

General information

Coordinates: N34°24'27" W119°10'9"
Elevation is 2420 feet MSL.
Magnetic variation is 14° East
View others Airports in California

Operational data

Special qualification required
Current time UTC:
Current local time:
Weather at : KCMA - Camarillo ( 23 km )
METAR: KCMA 221337Z AUTO 31003KT 8SM OVC009 18/13 A2993 RMK AO2 T01780133
TAF: KCMA 221300Z 2213/2312 VRB03KT P6SM OVC010 FM221900 24009KT P6SM SCT012 FM230500 VRB03KT P6SM BKN007
View NOTAMs / SUP AIP / TFR affecting this airport [VIEW]
Communications frequencies: [VIEW]

Runways:

Airport contact information

Address: Ojai United States

Satellite view of 6CL5